sensor_id;sensor_type;location;lat;lon;timestamp;temperature;humidity
51950;DHT22;37974;53.218;6.640;2023-04-03T00:01:55;2.00;99.90
51950;DHT22;37974;53.218;6.640;2023-04-03T00:04:21;2.60;99.90
51950;DHT22;37974;53.218;6.640;2023-04-03T00:06:47;1.90;99.90
51950;DHT22;37974;53.218;6.640;2023-04-03T00:09:12;2.50;99.90
51950;DHT22;37974;53.218;6.640;2023-04-03T00:11:38;2.50;99.90
51950;DHT22;37974;53.218;6.640;2023-04-03T00:14:04;1.90;99.90
51950;DHT22;37974;53.218;6.640;2023-04-03T00:16:30;2.00;99.90
51950;DHT22;37974;53.218;6.640;2023-04-03T00:18:55;3.00;99.90
51950;DHT22;37974;53.218;6.640;2023-04-03T00:21:24;2.10;99.90
51950;DHT22;37974;53.218;6.640;2023-04-03T00:23:49;1.90;99.90
51950;DHT22;37974;53.218;6.640;2023-04-03T00:26:15;2.10;99.90
51950;DHT22;37974;53.218;6.640;2023-04-03T00:28:41;1.90;99.90
51950;DHT22;37974;53.218;6.640;2023-04-03T00:31:07;1.90;99.90
51950;DHT22;37974;53.218;6.640;2023-04-03T00:33:32;2.20;99.90
51950;DHT22;37974;53.218;6.640;2023-04-03T00:35:58;1.90;99.90
51950;DHT22;37974;53.218;6.640;2023-04-03T00:38:24;1.80;99.90
51950;DHT22;37974;53.218;6.640;2023-04-03T00:40:50;1.80;99.90
51950;DHT22;37974;53.218;6.640;2023-04-03T00:43:19;1.80;99.90
51950;DHT22;37974;53.218;6.640;2023-04-03T00:45:48;1.80;99.90
51950;DHT22;37974;53.218;6.640;2023-04-03T00:48:21;2.20;99.90
51950;DHT22;37974;53.218;6.640;2023-04-03T00:50:48;1.70;99.90
51950;DHT22;37974;53.218;6.640;2023-04-03T00:53:19;1.90;99.90
51950;DHT22;37974;53.218;6.640;2023-04-03T00:55:47;1.70;99.90
51950;DHT22;37974;53.218;6.640;2023-04-03T00:58:15;1.80;99.90
51950;DHT22;37974;53.218;6.640;2023-04-03T01:00:48;1.60;99.90
51950;DHT22;37974;53.218;6.640;2023-04-03T01:03:15;1.80;99.90
51950;DHT22;37974;53.218;6.640;2023-04-03T01:05:41;1.60;99.90
51950;DHT22;37974;53.218;6.640;2023-04-03T01:08:07;1.80;99.90
51950;DHT22;37974;53.218;6.640;2023-04-03T01:10:33;1.60;99.90
51950;DHT22;37974;53.218;6.640;2023-04-03T01:12:59;2.00;99.90
51950;DHT22;37974;53.218;6.640;2023-04-03T01:15:27;1.80;99.90
51950;DHT22;37974;53.218;6.640;2023-04-03T01:17:58;2.20;99.90
51950;DHT22;37974;53.218;6.640;2023-04-03T01:23:14;1.40;99.90
51950;DHT22;37974;53.218;6.640;2023-04-03T01:28:09;1.40;99.90
51950;DHT22;37974;53.218;6.640;2023-04-03T01:30:50;1.60;99.90
51950;DHT22;37974;53.218;6.640;2023-04-03T01:33:17;1.40;99.90
51950;DHT22;37974;53.218;6.640;2023-04-03T01:35:43;1.30;99.90
51950;DHT22;37974;53.218;6.640;2023-04-03T01:38:09;1.80;99.90
51950;DHT22;37974;53.218;6.640;2023-04-03T01:40:36;1.70;99.90
51950;DHT22;37974;53.218;6.640;2023-04-03T01:43:01;1.30;99.90
51950;DHT22;37974;53.218;6.640;2023-04-03T01:45:27;1.50;99.90
51950;DHT22;37974;53.218;6.640;2023-04-03T01:47:53;1.50;99.90
51950;DHT22;37974;53.218;6.640;2023-04-03T01:50:18;1.20;99.90
51950;DHT22;37974;53.218;6.640;2023-04-03T01:52:44;1.20;99.90
51950;DHT22;37974;53.218;6.640;2023-04-03T01:55:10;1.40;99.90
51950;DHT22;37974;53.218;6.640;2023-04-03T01:57:35;1.60;99.90
51950;DHT22;37974;53.218;6.640;2023-04-03T02:00:01;1.60;99.90
51950;DHT22;37974;53.218;6.640;2023-04-03T02:02:27;1.10;99.90
51950;DHT22;37974;53.218;6.640;2023-04-03T02:04:52;1.10;99.90
51950;DHT22;37974;53.218;6.640;2023-04-03T02:07:18;2.00;99.90
51950;DHT22;37974;53.218;6.640;2023-04-03T02:09:44;1.00;99.90
51950;DHT22;37974;53.218;6.640;2023-04-03T02:12:10;1.40;99.90
51950;DHT22;37974;53.218;6.640;2023-04-03T02:14:35;1.50;99.90
51950;DHT22;37974;53.218;6.640;2023-04-03T02:17:02;1.00;99.90
51950;DHT22;37974;53.218;6.640;2023-04-03T02:19:31;1.10;99.90
51950;DHT22;37974;53.218;6.640;2023-04-03T02:21:57;0.90;99.90
51950;DHT22;37974;53.218;6.640;2023-04-03T02:24:23;1.30;99.90
51950;DHT22;37974;53.218;6.640;2023-04-03T02:26:48;1.30;99.90
51950;DHT22;37974;53.218;6.640;2023-04-03T02:29:14;1.20;99.90
51950;DHT22;37974;53.218;6.640;2023-04-03T02:31:40;1.40;99.90
51950;DHT22;37974;53.218;6.640;2023-04-03T02:34:05;0.70;99.90
51950;DHT22;37974;53.218;6.640;2023-04-03T02:36:31;1.10;99.90
51950;DHT22;37974;53.218;6.640;2023-04-03T02:38:57;1.10;99.90
51950;DHT22;37974;53.218;6.640;2023-04-03T02:41:23;0.60;99.90
51950;DHT22;37974;53.218;6.640;2023-04-03T02:43:50;1.10;99.90
51950;DHT22;37974;53.218;6.640;2023-04-03T02:46:16;0.60;99.90
51950;DHT22;37974;53.218;6.640;2023-04-03T02:48:42;0.80;99.90
51950;DHT22;37974;53.218;6.640;2023-04-03T02:51:07;0.50;99.90
51950;DHT22;37974;53.218;6.640;2023-04-03T02:53:33;0.80;99.90
51950;DHT22;37974;53.218;6.640;2023-04-03T02:55:59;0.50;99.90
51950;DHT22;37974;53.218;6.640;2023-04-03T02:58:24;0.90;99.90
51950;DHT22;37974;53.218;6.640;2023-04-03T03:00:50;0.90;99.90
51950;DHT22;37974;53.218;6.640;2023-04-03T03:03:16;1.20;99.90
51950;DHT22;37974;53.218;6.640;2023-04-03T03:05:42;1.00;99.90
51950;DHT22;37974;53.218;6.640;2023-04-03T03:08:07;0.30;99.90
51950;DHT22;37974;53.218;6.640;2023-04-03T03:10:33;0.90;99.90
51950;DHT22;37974;53.218;6.640;2023-04-03T03:12:59;1.00;99.90
51950;DHT22;37974;53.218;6.640;2023-04-03T03:15:24;0.60;99.90
51950;DHT22;37974;53.218;6.640;2023-04-03T03:17:51;1.10;99.90
51950;DHT22;37974;53.218;6.640;2023-04-03T03:20:17;0.30;99.90
51950;DHT22;37974;53.218;6.640;2023-04-03T03:22:43;0.70;99.90
51950;DHT22;37974;53.218;6.640;2023-04-03T03:25:08;0.80;99.90
51950;DHT22;37974;53.218;6.640;2023-04-03T03:27:34;0.00;99.90
51950;DHT22;37974;53.218;6.640;2023-04-03T03:30:00;-0.10;99.90
51950;DHT22;37974;53.218;6.640;2023-04-03T03:32:26;0.20;99.90
51950;DHT22;37974;53.218;6.640;2023-04-03T03:34:52;0.30;99.90
51950;DHT22;37974;53.218;6.640;2023-04-03T03:37:17;0.30;99.90
51950;DHT22;37974;53.218;6.640;2023-04-03T03:39:43;-0.20;99.90
51950;DHT22;37974;53.218;6.640;2023-04-03T03:42:09;0.10;99.90
51950;DHT22;37974;53.218;6.640;2023-04-03T03:44:34;-0.10;99.90
51950;DHT22;37974;53.218;6.640;2023-04-03T03:47:00;0.30;99.90
51950;DHT22;37974;53.218;6.640;2023-04-03T03:49:26;-0.10;99.90
51950;DHT22;37974;53.218;6.640;2023-04-03T03:51:52;-0.20;99.90
51950;DHT22;37974;53.218;6.640;2023-04-03T03:54:18;0.70;99.90
51950;DHT22;37974;53.218;6.640;2023-04-03T03:56:43;0.10;99.90
51950;DHT22;37974;53.218;6.640;2023-04-03T03:59:11;-0.10;99.90
51950;DHT22;37974;53.218;6.640;2023-04-03T04:01:37;0.10;99.90
51950;DHT22;37974;53.218;6.640;2023-04-03T04:04:02;-0.20;99.90
51950;DHT22;37974;53.218;6.640;2023-04-03T04:06:28;-0.20;99.90
51950;DHT22;37974;53.218;6.640;2023-04-03T04:08:54;0.10;99.90
51950;DHT22;37974;53.218;6.640;2023-04-03T04:11:20;-0.20;99.90
51950;DHT22;37974;53.218;6.640;2023-04-03T04:13:47;-0.20;99.90
51950;DHT22;37974;53.218;6.640;2023-04-03T04:16:13;0.40;99.90
51950;DHT22;37974;53.218;6.640;2023-04-03T04:18:38;0.60;99.90
51950;DHT22;37974;53.218;6.640;2023-04-03T04:21:04;0.10;99.90
51950;DHT22;37974;53.218;6.640;2023-04-03T04:23:30;-0.30;99.90
51950;DHT22;37974;53.218;6.640;2023-04-03T04:25:55;0.30;99.90
51950;DHT22;37974;53.218;6.640;2023-04-03T04:28:21;-0.40;99.90
51950;DHT22;37974;53.218;6.640;2023-04-03T04:30:47;-0.10;99.90
51950;DHT22;37974;53.218;6.640;2023-04-03T04:33:13;0.40;99.90
51950;DHT22;37974;53.218;6.640;2023-04-03T04:35:40;-0.40;99.90
51950;DHT22;37974;53.218;6.640;2023-04-03T04:38:06;0.50;99.90
51950;DHT22;37974;53.218;6.640;2023-04-03T04:40:34;0.10;99.90
51950;DHT22;37974;53.218;6.640;2023-04-03T04:43:00;-0.10;99.90
51950;DHT22;37974;53.218;6.640;2023-04-03T04:45:26;-0.90;99.90
51950;DHT22;37974;53.218;6.640;2023-04-03T04:47:51;0.40;99.90
51950;DHT22;37974;53.218;6.640;2023-04-03T04:50:18;0.20;99.90
51950;DHT22;37974;53.218;6.640;2023-04-03T04:52:44;-0.40;99.90
51950;DHT22;37974;53.218;6.640;2023-04-03T04:55:09;-0.40;99.90
51950;DHT22;37974;53.218;6.640;2023-04-03T04:57:35;0.20;99.90
51950;DHT22;37974;53.218;6.640;2023-04-03T05:00:02;0.00;99.90
51950;DHT22;37974;53.218;6.640;2023-04-03T05:02:28;-0.40;99.90
51950;DHT22;37974;53.218;6.640;2023-04-03T05:04:54;-0.50;99.90
51950;DHT22;37974;53.218;6.640;2023-04-03T05:07:20;-0.40;99.90
51950;DHT22;37974;53.218;6.640;2023-04-03T05:09:46;0.40;99.90
51950;DHT22;37974;53.218;6.640;2023-04-03T05:12:11;0.30;99.90
51950;DHT22;37974;53.218;6.640;2023-04-03T05:14:37;0.20;99.90
51950;DHT22;37974;53.218;6.640;2023-04-03T05:17:03;0.60;99.90
51950;DHT22;37974;53.218;6.640;2023-04-03T05:19:28;-0.50;99.90
51950;DHT22;37974;53.218;6.640;2023-04-03T05:21:54;0.10;99.90
51950;DHT22;37974;53.218;6.640;2023-04-03T05:24:20;0.40;99.90
51950;DHT22;37974;53.218;6.640;2023-04-03T05:26:46;-0.50;99.90
51950;DHT22;37974;53.218;6.640;2023-04-03T05:29:11;-0.50;99.90
51950;DHT22;37974;53.218;6.640;2023-04-03T05:31:37;-0.50;99.90
51950;DHT22;37974;53.218;6.640;2023-04-03T05:34:03;-0.30;99.90
51950;DHT22;37974;53.218;6.640;2023-04-03T05:36:29;-0.50;99.90
51950;DHT22;37974;53.218;6.640;2023-04-03T05:38:55;-0.20;99.90
51950;DHT22;37974;53.218;6.640;2023-04-03T05:41:22;-0.10;99.90
51950;DHT22;37974;53.218;6.640;2023-04-03T05:43:48;-0.40;99.90
51950;DHT22;37974;53.218;6.640;2023-04-03T05:46:16;-0.40;99.90
51950;DHT22;37974;53.218;6.640;2023-04-03T05:48:42;-0.10;99.90
51950;DHT22;37974;53.218;6.640;2023-04-03T05:51:15;0.50;99.90
51950;DHT22;37974;53.218;6.640;2023-04-03T05:53:41;0.00;99.90
51950;DHT22;37974;53.218;6.640;2023-04-03T05:56:07;-0.20;99.90
51950;DHT22;37974;53.218;6.640;2023-04-03T05:58:33;-0.10;99.90
51950;DHT22;37974;53.218;6.640;2023-04-03T06:00:59;-0.10;99.90
51950;DHT22;37974;53.218;6.640;2023-04-03T06:03:25;0.20;99.90
51950;DHT22;37974;53.218;6.640;2023-04-03T06:05:51;0.00;99.90
51950;DHT22;37974;53.218;6.640;2023-04-03T06:08:17;0.10;99.90
51950;DHT22;37974;53.218;6.640;2023-04-03T06:10:43;0.20;99.90
51950;DHT22;37974;53.218;6.640;2023-04-03T06:13:08;1.20;99.90
51950;DHT22;37974;53.218;6.640;2023-04-03T06:15:34;1.00;99.90
51950;DHT22;37974;53.218;6.640;2023-04-03T06:18:00;0.30;99.90
51950;DHT22;37974;53.218;6.640;2023-04-03T06:20:26;0.40;99.90
51950;DHT22;37974;53.218;6.640;2023-04-03T06:22:52;0.40;99.90
51950;DHT22;37974;53.218;6.640;2023-04-03T06:25:18;1.50;99.90
51950;DHT22;37974;53.218;6.640;2023-04-03T06:27:44;0.90;99.90
51950;DHT22;37974;53.218;6.640;2023-04-03T06:30:11;0.60;99.90
51950;DHT22;37974;53.218;6.640;2023-04-03T06:32:37;0.60;99.90
51950;DHT22;37974;53.218;6.640;2023-04-03T06:35:04;1.40;99.90
51950;DHT22;37974;53.218;6.640;2023-04-03T06:37:30;0.70;99.90
51950;DHT22;37974;53.218;6.640;2023-04-03T06:39:56;0.80;99.90
51950;DHT22;37974;53.218;6.640;2023-04-03T06:42:22;0.90;99.90
51950;DHT22;37974;53.218;6.640;2023-04-03T06:44:48;0.90;99.90
51950;DHT22;37974;53.218;6.640;2023-04-03T06:47:15;1.30;99.90
51950;DHT22;37974;53.218;6.640;2023-04-03T06:49:41;1.30;99.90
51950;DHT22;37974;53.218;6.640;2023-04-03T06:52:08;1.10;99.90
51950;DHT22;37974;53.218;6.640;2023-04-03T06:54:34;1.80;99.90
51950;DHT22;37974;53.218;6.640;2023-04-03T06:57:01;2.30;99.90
51950;DHT22;37974;53.218;6.640;2023-04-03T06:59:27;1.30;99.90
51950;DHT22;37974;53.218;6.640;2023-04-03T07:01:53;1.30;99.90
51950;DHT22;37974;53.218;6.640;2023-04-03T07:04:18;1.40;99.90
51950;DHT22;37974;53.218;6.640;2023-04-03T07:06:46;1.60;99.90
51950;DHT22;37974;53.218;6.640;2023-04-03T07:09:13;1.50;99.90
51950;DHT22;37974;53.218;6.640;2023-04-03T07:11:39;1.50;99.90
51950;DHT22;37974;53.218;6.640;2023-04-03T07:14:04;1.70;99.90
51950;DHT22;37974;53.218;6.640;2023-04-03T07:16:31;2.30;99.90
51950;DHT22;37974;53.218;6.640;2023-04-03T07:18:57;1.70;99.90
51950;DHT22;37974;53.218;6.640;2023-04-03T07:21:23;2.20;99.90
51950;DHT22;37974;53.218;6.640;2023-04-03T07:23:49;1.80;99.90
51950;DHT22;37974;53.218;6.640;2023-04-03T07:26:15;1.90;99.90
51950;DHT22;37974;53.218;6.640;2023-04-03T07:28:41;2.00;99.90
51950;DHT22;37974;53.218;6.640;2023-04-03T07:31:10;2.00;99.90
51950;DHT22;37974;53.218;6.640;2023-04-03T07:33:39;2.60;99.90
51950;DHT22;37974;53.218;6.640;2023-04-03T07:36:06;2.40;99.90
51950;DHT22;37974;53.218;6.640;2023-04-03T07:38:33;2.20;99.90
51950;DHT22;37974;53.218;6.640;2023-04-03T07:40:59;2.30;99.90
51950;DHT22;37974;53.218;6.640;2023-04-03T07:43:25;2.70;99.90
51950;DHT22;37974;53.218;6.640;2023-04-03T07:45:52;2.50;99.90
51950;DHT22;37974;53.218;6.640;2023-04-03T07:48:21;2.60;99.90
51950;DHT22;37974;53.218;6.640;2023-04-03T07:50:47;2.60;99.90
51950;DHT22;37974;53.218;6.640;2023-04-03T07:53:13;2.60;99.90
51950;DHT22;37974;53.218;6.640;2023-04-03T07:55:39;2.70;99.90
51950;DHT22;37974;53.218;6.640;2023-04-03T07:58:10;2.80;99.90
51950;DHT22;37974;53.218;6.640;2023-04-03T08:00:37;3.00;99.90
51950;DHT22;37974;53.218;6.640;2023-04-03T08:03:04;3.40;99.90
51950;DHT22;37974;53.218;6.640;2023-04-03T08:05:30;3.00;99.90
51950;DHT22;37974;53.218;6.640;2023-04-03T08:07:56;3.10;99.90
51950;DHT22;37974;53.218;6.640;2023-04-03T08:10:22;3.20;99.90
51950;DHT22;37974;53.218;6.640;2023-04-03T08:12:47;3.20;99.90
51950;DHT22;37974;53.218;6.640;2023-04-03T08:15:14;3.30;99.90
51950;DHT22;37974;53.218;6.640;2023-04-03T08:17:40;3.50;99.90
51950;DHT22;37974;53.218;6.640;2023-04-03T08:20:07;3.50;99.90
51950;DHT22;37974;53.218;6.640;2023-04-03T08:22:34;3.60;99.90
51950;DHT22;37974;53.218;6.640;2023-04-03T08:25:00;3.70;99.90
51950;DHT22;37974;53.218;6.640;2023-04-03T08:27:27;3.80;99.90
51950;DHT22;37974;53.218;6.640;2023-04-03T08:29:53;3.90;99.90
51950;DHT22;37974;53.218;6.640;2023-04-03T08:32:18;3.90;99.90
51950;DHT22;37974;53.218;6.640;2023-04-03T08:34:44;4.10;99.90
51950;DHT22;37974;53.218;6.640;2023-04-03T08:37:10;4.10;99.90
51950;DHT22;37974;53.218;6.640;2023-04-03T08:39:36;4.20;99.90
51950;DHT22;37974;53.218;6.640;2023-04-03T08:42:10;4.30;99.90
51950;DHT22;37974;53.218;6.640;2023-04-03T08:44:47;4.40;99.90
51950;DHT22;37974;53.218;6.640;2023-04-03T08:52:20;4.80;99.90
51950;DHT22;37974;53.218;6.640;2023-04-03T08:54:48;4.80;99.90
51950;DHT22;37974;53.218;6.640;2023-04-03T08:57:17;4.90;99.90
51950;DHT22;37974;53.218;6.640;2023-04-03T08:59:45;5.00;99.90
51950;DHT22;37974;53.218;6.640;2023-04-03T09:02:23;5.00;99.90
51950;DHT22;37974;53.218;6.640;2023-04-03T09:04:50;5.10;99.90
51950;DHT22;37974;53.218;6.640;2023-04-03T09:07:25;5.10;99.90
51950;DHT22;37974;53.218;6.640;2023-04-03T09:09:54;5.20;99.90
51950;DHT22;37974;53.218;6.640;2023-04-03T09:12:21;5.30;99.90
51950;DHT22;37974;53.218;6.640;2023-04-03T09:20:25;5.40;99.90
51950;DHT22;37974;53.218;6.640;2023-04-03T09:22:53;5.50;99.90
51950;DHT22;37974;53.218;6.640;2023-04-03T09:25:28;5.60;99.90
51950;DHT22;37974;53.218;6.640;2023-04-03T09:27:59;5.60;99.90
51950;DHT22;37974;53.218;6.640;2023-04-03T09:30:26;5.70;99.90
51950;DHT22;37974;53.218;6.640;2023-04-03T09:32:54;5.80;99.90
51950;DHT22;37974;53.218;6.640;2023-04-03T09:35:31;5.40;99.90
51950;DHT22;37974;53.218;6.640;2023-04-03T09:38:01;5.90;99.90
51950;DHT22;37974;53.218;6.640;2023-04-03T09:40:29;6.00;99.90
51950;DHT22;37974;53.218;6.640;2023-04-03T09:42:58;6.00;99.90
51950;DHT22;37974;53.218;6.640;2023-04-03T09:45:27;6.10;99.90
51950;DHT22;37974;53.218;6.640;2023-04-03T09:53:39;6.20;99.90
51950;DHT22;37974;53.218;6.640;2023-04-03T09:58:45;6.40;99.90
51950;DHT22;37974;53.218;6.640;2023-04-03T10:01:33;6.50;99.90
51950;DHT22;37974;53.218;6.640;2023-04-03T10:04:15;6.60;99.90
51950;DHT22;37974;53.218;6.640;2023-04-03T10:06:47;6.60;99.90
51950;DHT22;37974;53.218;6.640;2023-04-03T10:09:21;6.60;99.90
51950;DHT22;37974;53.218;6.640;2023-04-03T10:12:01;6.80;99.90
51950;DHT22;37974;53.218;6.640;2023-04-03T10:14:28;6.90;99.90
51950;DHT22;37974;53.218;6.640;2023-04-03T10:19:53;7.00;99.90
51950;DHT22;37974;53.218;6.640;2023-04-03T10:32:42;7.40;99.90
51950;DHT22;37974;53.218;6.640;2023-04-03T10:40:52;7.60;99.90
51950;DHT22;37974;53.218;6.640;2023-04-03T10:44:10;7.70;99.90
51950;DHT22;37974;53.218;6.640;2023-04-03T10:46:38;7.80;99.90
51950;DHT22;37974;53.218;6.640;2023-04-03T10:52:00;7.80;99.90
51950;DHT22;37974;53.218;6.640;2023-04-03T10:54:39;7.80;99.90
51950;DHT22;37974;53.218;6.640;2023-04-03T10:57:09;7.90;99.90
51950;DHT22;37974;53.218;6.640;2023-04-03T11:04:37;8.10;99.90
51950;DHT22;37974;53.218;6.640;2023-04-03T11:07:12;8.10;99.90
51950;DHT22;37974;53.218;6.640;2023-04-03T11:09:42;8.20;99.90
51950;DHT22;37974;53.218;6.640;2023-04-03T11:12:24;8.20;99.90
51950;DHT22;37974;53.218;6.640;2023-04-03T11:14:52;8.30;99.90
51950;DHT22;37974;53.218;6.640;2023-04-03T11:17:30;8.30;99.90
51950;DHT22;37974;53.218;6.640;2023-04-03T11:22:30;8.40;99.90
51950;DHT22;37974;53.218;6.640;2023-04-03T11:27:37;8.50;99.90
51950;DHT22;37974;53.218;6.640;2023-04-03T11:30:07;8.40;99.90
51950;DHT22;37974;53.218;6.640;2023-04-03T11:35:02;8.60;99.90
51950;DHT22;37974;53.218;6.640;2023-04-03T11:37:37;8.60;99.90
51950;DHT22;37974;53.218;6.640;2023-04-03T11:42:47;8.70;99.90
51950;DHT22;37974;53.218;6.640;2023-04-03T11:45:25;8.70;99.90
51950;DHT22;37974;53.218;6.640;2023-04-03T11:47:55;8.70;99.60
51950;DHT22;37974;53.218;6.640;2023-04-03T12:05:56;8.90;99.40
51950;DHT22;37974;53.218;6.640;2023-04-03T12:08:27;8.90;99.80
51950;DHT22;37974;53.218;6.640;2023-04-03T12:24:23;8.90;98.50
51950;DHT22;37974;53.218;6.640;2023-04-03T12:27:01;8.90;98.20
51950;DHT22;37974;53.218;6.640;2023-04-03T12:35:21;9.10;97.70
51950;DHT22;37974;53.218;6.640;2023-04-03T12:43:36;9.20;97.80
51950;DHT22;37974;53.218;6.640;2023-04-03T12:48:53;9.20;96.80
51950;DHT22;37974;53.218;6.640;2023-04-03T12:51:34;9.20;95.60
51950;DHT22;37974;53.218;6.640;2023-04-03T12:54:05;9.10;96.70
51950;DHT22;37974;53.218;6.640;2023-04-03T12:56:38;9.10;96.50
51950;DHT22;37974;53.218;6.640;2023-04-03T12:59:25;9.10;96.60
51950;DHT22;37974;53.218;6.640;2023-04-03T13:01:57;9.20;96.50
51950;DHT22;37974;53.218;6.640;2023-04-03T13:04:23;9.20;96.20
51950;DHT22;37974;53.218;6.640;2023-04-03T13:06:50;9.20;96.50
51950;DHT22;37974;53.218;6.640;2023-04-03T13:09:26;9.10;95.90
51950;DHT22;37974;53.218;6.640;2023-04-03T13:12:00;9.10;95.70
51950;DHT22;37974;53.218;6.640;2023-04-03T13:14:27;9.20;95.50
51950;DHT22;37974;53.218;6.640;2023-04-03T13:16:59;9.10;95.80
51950;DHT22;37974;53.218;6.640;2023-04-03T13:19:26;9.20;95.10
51950;DHT22;37974;53.218;6.640;2023-04-03T13:21:59;9.10;95.40
51950;DHT22;37974;53.218;6.640;2023-04-03T13:24:27;9.10;95.40
51950;DHT22;37974;53.218;6.640;2023-04-03T13:26:53;9.20;95.30
51950;DHT22;37974;53.218;6.640;2023-04-03T13:29:26;9.20;95.10
51950;DHT22;37974;53.218;6.640;2023-04-03T13:31:54;9.20;95.00
51950;DHT22;37974;53.218;6.640;2023-04-03T13:34:22;9.20;95.10
51950;DHT22;37974;53.218;6.640;2023-04-03T13:41:46;9.10;94.60
51950;DHT22;37974;53.218;6.640;2023-04-03T13:46:48;9.10;94.50
51950;DHT22;37974;53.218;6.640;2023-04-03T13:49:34;9.10;94.80
51950;DHT22;37974;53.218;6.640;2023-04-03T13:52:17;9.10;94.70
51950;DHT22;37974;53.218;6.640;2023-04-03T13:54:47;9.10;95.50
51950;DHT22;37974;53.218;6.640;2023-04-03T13:57:16;9.10;95.70
51950;DHT22;37974;53.218;6.640;2023-04-03T13:59:42;9.10;95.70
51950;DHT22;37974;53.218;6.640;2023-04-03T14:07:09;9.10;95.90
51950;DHT22;37974;53.218;6.640;2023-04-03T14:09:34;9.00;96.50
51950;DHT22;37974;53.218;6.640;2023-04-03T14:12:06;8.90;96.40
51950;DHT22;37974;53.218;6.640;2023-04-03T14:14:35;8.90;95.40
51950;DHT22;37974;53.218;6.640;2023-04-03T14:17:13;8.80;96.00
51950;DHT22;37974;53.218;6.640;2023-04-03T14:19:40;8.90;96.00
51950;DHT22;37974;53.218;6.640;2023-04-03T14:22:15;8.90;96.30
51950;DHT22;37974;53.218;6.640;2023-04-03T14:24:41;8.90;95.90
51950;DHT22;37974;53.218;6.640;2023-04-03T14:27:17;8.90;95.80
51950;DHT22;37974;53.218;6.640;2023-04-03T14:29:44;8.80;95.50
51950;DHT22;37974;53.218;6.640;2023-04-03T14:32:12;8.80;95.70
51950;DHT22;37974;53.218;6.640;2023-04-03T14:34:39;8.90;95.80
51950;DHT22;37974;53.218;6.640;2023-04-03T14:37:09;8.90;96.00
51950;DHT22;37974;53.218;6.640;2023-04-03T14:39:35;9.00;96.00
51950;DHT22;37974;53.218;6.640;2023-04-03T14:42:01;9.00;96.70
51950;DHT22;37974;53.218;6.640;2023-04-03T14:44:27;9.10;96.70
51950;DHT22;37974;53.218;6.640;2023-04-03T14:46:52;9.20;96.70
51950;DHT22;37974;53.218;6.640;2023-04-03T14:49:20;9.20;96.50
51950;DHT22;37974;53.218;6.640;2023-04-03T14:51:47;9.20;96.20
51950;DHT22;37974;53.218;6.640;2023-04-03T14:54:18;9.30;96.30
51950;DHT22;37974;53.218;6.640;2023-04-03T14:56:47;9.30;96.10
51950;DHT22;37974;53.218;6.640;2023-04-03T14:59:13;9.40;96.40
51950;DHT22;37974;53.218;6.640;2023-04-03T15:01:40;9.40;96.10
51950;DHT22;37974;53.218;6.640;2023-04-03T15:04:11;9.40;95.70
51950;DHT22;37974;53.218;6.640;2023-04-03T15:06:37;9.40;95.10
51950;DHT22;37974;53.218;6.640;2023-04-03T15:09:03;9.40;95.40
51950;DHT22;37974;53.218;6.640;2023-04-03T15:11:29;9.50;95.60
51950;DHT22;37974;53.218;6.640;2023-04-03T15:13:54;9.40;95.50
51950;DHT22;37974;53.218;6.640;2023-04-03T15:16:21;9.50;95.70
51950;DHT22;37974;53.218;6.640;2023-04-03T15:18:47;9.50;95.60
51950;DHT22;37974;53.218;6.640;2023-04-03T15:21:13;9.50;95.10
51950;DHT22;37974;53.218;6.640;2023-04-03T15:23:39;9.50;94.80
51950;DHT22;37974;53.218;6.640;2023-04-03T15:26:05;9.50;94.90
51950;DHT22;37974;53.218;6.640;2023-04-03T15:28:39;9.60;94.50
51950;DHT22;37974;53.218;6.640;2023-04-03T15:31:06;9.60;94.70
51950;DHT22;37974;53.218;6.640;2023-04-03T15:33:33;9.60;94.70
51950;DHT22;37974;53.218;6.640;2023-04-03T15:36:03;9.60;94.80
51950;DHT22;37974;53.218;6.640;2023-04-03T15:38:29;9.50;94.50
51950;DHT22;37974;53.218;6.640;2023-04-03T15:40:55;9.50;94.40
51950;DHT22;37974;53.218;6.640;2023-04-03T15:43:21;9.50;94.60
51950;DHT22;37974;53.218;6.640;2023-04-03T15:45:47;9.40;94.40
51950;DHT22;37974;53.218;6.640;2023-04-03T15:48:14;9.30;94.20
51950;DHT22;37974;53.218;6.640;2023-04-03T15:50:41;9.30;93.70
51950;DHT22;37974;53.218;6.640;2023-04-03T15:53:08;9.20;93.50
51950;DHT22;37974;53.218;6.640;2023-04-03T15:55:35;9.20;93.70
51950;DHT22;37974;53.218;6.640;2023-04-03T15:58:02;9.10;93.60
51950;DHT22;37974;53.218;6.640;2023-04-03T16:00:28;9.00;93.70
51950;DHT22;37974;53.218;6.640;2023-04-03T16:02:59;9.00;94.00
51950;DHT22;37974;53.218;6.640;2023-04-03T16:05:27;8.90;94.00
51950;DHT22;37974;53.218;6.640;2023-04-03T16:07:53;8.90;94.30
51950;DHT22;37974;53.218;6.640;2023-04-03T16:10:20;8.80;94.50
51950;DHT22;37974;53.218;6.640;2023-04-03T16:12:46;8.80;94.30
51950;DHT22;37974;53.218;6.640;2023-04-03T16:15:12;8.80;94.40
51950;DHT22;37974;53.218;6.640;2023-04-03T16:17:38;8.70;94.30
51950;DHT22;37974;53.218;6.640;2023-04-03T16:20:07;8.60;94.60
51950;DHT22;37974;53.218;6.640;2023-04-03T16:22:33;8.60;95.10
51950;DHT22;37974;53.218;6.640;2023-04-03T16:24:59;8.60;95.40
51950;DHT22;37974;53.218;6.640;2023-04-03T16:27:25;8.50;95.70
51950;DHT22;37974;53.218;6.640;2023-04-03T16:29:55;8.50;95.90
51950;DHT22;37974;53.218;6.640;2023-04-03T16:32:21;8.40;95.60
51950;DHT22;37974;53.218;6.640;2023-04-03T16:34:48;8.40;95.50
51950;DHT22;37974;53.218;6.640;2023-04-03T16:37:14;8.30;95.30
51950;DHT22;37974;53.218;6.640;2023-04-03T16:39:40;8.20;95.30
51950;DHT22;37974;53.218;6.640;2023-04-03T16:42:06;8.10;95.80
51950;DHT22;37974;53.218;6.640;2023-04-03T16:44:32;8.00;96.30
51950;DHT22;37974;53.218;6.640;2023-04-03T16:46:57;7.90;97.00
51950;DHT22;37974;53.218;6.640;2023-04-03T16:49:24;7.90;97.50
51950;DHT22;37974;53.218;6.640;2023-04-03T16:51:50;7.70;97.80
51950;DHT22;37974;53.218;6.640;2023-04-03T16:54:16;7.60;97.80
51950;DHT22;37974;53.218;6.640;2023-04-03T16:56:42;7.50;98.00
51950;DHT22;37974;53.218;6.640;2023-04-03T16:59:08;7.50;98.30
51950;DHT22;37974;53.218;6.640;2023-04-03T17:01:33;7.30;98.40
51950;DHT22;37974;53.218;6.640;2023-04-03T17:03:59;7.30;98.70
51950;DHT22;37974;53.218;6.640;2023-04-03T17:06:25;7.20;99.00
51950;DHT22;37974;53.218;6.640;2023-04-03T17:08:51;7.20;99.10
51950;DHT22;37974;53.218;6.640;2023-04-03T17:11:18;7.10;99.30
51950;DHT22;37974;53.218;6.640;2023-04-03T17:13:44;7.10;99.50
51950;DHT22;37974;53.218;6.640;2023-04-03T17:16:13;7.20;99.70
51950;DHT22;37974;53.218;6.640;2023-04-03T17:18:39;7.20;99.80
51950;DHT22;37974;53.218;6.640;2023-04-03T17:21:06;7.10;99.90
51950;DHT22;37974;53.218;6.640;2023-04-03T17:23:32;7.00;99.90
51950;DHT22;37974;53.218;6.640;2023-04-03T17:26:01;6.90;99.90
51950;DHT22;37974;53.218;6.640;2023-04-03T17:28:27;6.80;99.90
51950;DHT22;37974;53.218;6.640;2023-04-03T17:30:55;6.80;99.90
51950;DHT22;37974;53.218;6.640;2023-04-03T17:33:22;6.70;99.90
51950;DHT22;37974;53.218;6.640;2023-04-03T17:35:48;6.70;99.90
51950;DHT22;37974;53.218;6.640;2023-04-03T17:38:13;6.60;99.90
51950;DHT22;37974;53.218;6.640;2023-04-03T17:40:39;6.60;99.90
51950;DHT22;37974;53.218;6.640;2023-04-03T17:43:05;6.60;99.90
51950;DHT22;37974;53.218;6.640;2023-04-03T17:45:31;6.60;99.90